Time;durP1;ratioP1;P1;durP2;ratioP2;P2;SDS_P1;SDS_P2;PMS_P1;PMS_P2;Temp;Humidity;BMP_temperature;BMP_pressure;BME280_temperature;BME280_humidity;BME280_pressure;Samples;Min_cycle;Max_cycle;Signal;HPM_P1;HPM_P2
2023/06/20 00:04:34;;;;;;;14.98;11.57;;;;;;;17.17;100.00;96414.44;10575721;28;20230;-73
2023/06/20 00:09:35;;;;;;;13.70;11.82;;;;;;;17.28;100.00;96418.31;10575629;28;20681;-72
2023/06/20 00:14:37;;;;;;;14.93;11.57;;;;;;;17.23;100.00;96413.63;10575687;28;20725;-73
2023/06/20 00:19:39;;;;;;;13.15;11.85;;;;;;;17.10;100.00;96411.78;10575717;28;20190;-72
2023/06/20 00:24:39;;;;;;;12.52;11.20;;;;;;;17.11;100.00;96413.44;10575406;28;20182;-73
2023/06/20 00:29:40;;;;;;;14.70;11.50;;;;;;;17.06;100.00;96407.94;10575707;28;20906;-73
2023/06/20 00:34:40;;;;;;;15.23;12.40;;;;;;;16.85;100.00;96413.41;10584610;28;20555;-73
2023/06/20 00:39:41;;;;;;;13.80;11.25;;;;;;;16.88;100.00;96397.16;10565374;28;20220;-72
2023/06/20 00:44:42;;;;;;;15.27;11.55;;;;;;;16.70;100.00;96395.09;10564918;28;20268;-73
2023/06/20 00:49:44;;;;;;;13.50;11.35;;;;;;;16.58;100.00;96382.50;10583410;28;20228;-73
2023/06/20 00:54:47;;;;;;;13.48;11.77;;;;;;;16.45;100.00;96389.56;10583148;28;20185;-72
2023/06/20 00:59:48;;;;;;;17.15;11.82;;;;;;;16.41;100.00;96387.31;10582386;28;20639;-72
2023/06/20 01:04:49;;;;;;;15.52;12.57;;;;;;;16.37;100.00;96385.28;10564531;28;20245;-72
2023/06/20 01:09:52;;;;;;;14.15;11.98;;;;;;;16.44;100.00;96385.31;10564808;28;20270;-73
2023/06/20 01:15:13;;;;;;;13.15;11.70;;;;;;;16.47;100.00;96376.97;10582316;28;20551;-73
2023/06/20 01:20:31;;;;;;;15.63;10.70;;;;;;;16.43;100.00;96363.31;10563403;28;20186;-73
2023/06/20 01:25:46;;;;;;;14.63;11.45;;;;;;;16.31;100.00;96362.28;10582141;28;20181;-72
2023/06/20 01:30:56;;;;;;;13.43;11.93;;;;;;;16.13;100.00;96366.34;10546163;28;20584;-73
2023/06/20 01:35:59;;;;;;;13.93;11.70;;;;;;;15.98;100.00;96368.34;10581384;28;20669;-73
2023/06/20 01:40:59;;;;;;;12.63;11.32;;;;;;;15.92;100.00;96363.84;10545485;28;20237;-73
2023/06/20 01:46:02;;;;;;;13.38;11.98;;;;;;;15.95;100.00;96358.97;10562322;28;20184;-73
2023/06/20 01:51:02;;;;;;;12.45;11.25;;;;;;;16.07;100.00;96361.84;10580878;28;20206;-72
2023/06/20 01:56:03;;;;;;;13.57;12.18;;;;;;;15.88;100.00;96352.88;10562840;28;20190;-72
2023/06/20 02:01:04;;;;;;;13.40;11.73;;;;;;;15.84;100.00;96341.06;10561830;28;20243;-72
2023/06/20 02:06:05;;;;;;;13.50;12.10;;;;;;;15.78;100.00;96352.44;10580149;28;20309;-72
2023/06/20 02:11:07;;;;;;;13.98;10.80;;;;;;;15.70;100.00;96356.84;10560952;28;20206;-73
2023/06/20 02:16:08;;;;;;;14.15;10.63;;;;;;;15.75;100.00;96348.31;10561900;28;20263;-73
2023/06/20 02:21:19;;;;;;;14.45;11.70;;;;;;;15.54;100.00;96343.97;10560877;28;20258;-73
2023/06/20 02:26:24;;;;;;;14.50;11.63;;;;;;;15.59;100.00;96332.81;10561370;28;20189;-73
2023/06/20 02:31:27;;;;;;;14.43;11.45;;;;;;;15.39;100.00;96338.00;10560952;28;20245;-73
2023/06/20 02:36:29;;;;;;;14.40;11.00;;;;;;;15.44;100.00;96335.63;10544047;28;20198;-73
2023/06/20 02:41:30;;;;;;;14.00;10.88;;;;;;;15.49;100.00;96341.13;10542813;28;20186;-72
2023/06/20 02:46:35;;;;;;;14.77;11.02;;;;;;;15.54;100.00;96349.25;10577162;28;20736;-73
2023/06/20 02:51:56;;;;;;;12.80;11.00;;;;;;;15.56;100.00;96351.69;10536305;28;20214;-72
2023/06/20 02:56:59;;;;;;;12.25;11.00;;;;;;;15.52;100.00;96354.72;10500040;28;20186;-73
2023/06/20 03:02:02;;;;;;;11.90;10.68;;;;;;;15.54;100.00;96351.09;10517452;28;20178;-73
2023/06/20 03:07:02;;;;;;;12.68;10.20;;;;;;;15.59;100.00;96361.88;10515030;28;20726;-72
2023/06/20 03:12:03;;;;;;;13.02;10.85;;;;;;;15.55;100.00;96358.00;10495708;28;20218;-72
2023/06/20 03:17:04;;;;;;;12.75;11.35;;;;;;;15.55;100.00;96361.44;10496459;28;20229;-73
2023/06/20 03:22:05;;;;;;;15.65;10.30;;;;;;;15.62;100.00;96364.94;10512644;28;20539;-72
2023/06/20 03:27:05;;;;;;;10.95;9.50;;;;;;;15.61;100.00;96368.59;10512226;28;20187;-72
2023/06/20 03:32:06;;;;;;;12.15;9.88;;;;;;;15.73;100.00;96370.66;10511717;28;20906;-72
2023/06/20 03:37:07;;;;;;;11.90;10.70;;;;;;;15.92;100.00;96359.38;10534426;28;20263;-72
2023/06/20 03:42:08;;;;;;;11.35;10.15;;;;;;;15.85;100.00;96364.66;10553822;28;20182;-73
2023/06/20 03:47:09;;;;;;;11.13;9.90;;;;;;;15.96;100.00;96367.72;10553232;28;20186;-72
2023/06/20 03:52:10;;;;;;;12.05;9.88;;;;;;;16.19;100.00;96375.31;10553331;28;20222;-72
2023/06/20 03:57:10;;;;;;;10.95;9.60;;;;;;;16.27;100.00;96377.75;10549313;28;20190;-72
2023/06/20 04:02:11;;;;;;;10.73;9.57;;;;;;;16.38;100.00;96374.50;10496614;28;20644;-73
2023/06/20 04:07:13;;;;;;;10.05;8.43;;;;;;;16.60;100.00;96382.28;10515466;28;20265;-72
2023/06/20 04:12:13;;;;;;;13.25;9.70;;;;;;;16.73;100.00;96374.34;10533469;28;20218;-72
2023/06/20 04:17:14;;;;;;;13.00;9.40;;;;;;;16.69;100.00;96382.88;10515461;28;20199;-72
2023/06/20 04:22:14;;;;;;;9.65;8.38;;;;;;;16.68;100.00;96386.56;10514724;28;20560;-72
2023/06/20 04:27:15;;;;;;;22.58;9.02;;;;;;;16.91;100.00;96386.19;10516853;28;20209;-72
2023/06/20 04:32:17;;;;;;;10.50;9.40;;;;;;;17.25;100.00;96381.66;10518706;28;20221;-72
2023/06/20 04:37:18;;;;;;;12.45;9.05;;;;;;;17.70;100.00;96379.06;10548454;28;20614;-72
2023/06/20 04:42:19;;;;;;;10.00;9.00;;;;;;;18.17;100.00;96377.03;10499314;28;20533;-73
2023/06/20 04:47:19;;;;;;;11.27;9.13;;;;;;;18.72;100.00;96378.31;10532502;28;20266;-72
2023/06/20 04:52:20;;;;;;;10.10;7.72;;;;;;;19.10;97.59;96373.94;10514244;28;20219;-73
2023/06/20 04:57:21;;;;;;;11.77;8.20;;;;;;;19.58;95.73;96367.91;10532989;28;20185;-73
2023/06/20 05:02:22;;;;;;;12.30;7.90;;;;;;;19.90;93.71;96367.75;10515540;28;20226;-72
2023/06/20 05:07:22;;;;;;;9.82;8.30;;;;;;;20.17;91.31;96368.22;10517222;28;20252;-72
2023/06/20 05:12:23;;;;;;;9.95;8.02;;;;;;;20.29;89.16;96366.41;10516554;28;20187;-73
2023/06/20 05:17:23;;;;;;;8.75;7.75;;;;;;;20.41;89.59;96368.28;10563609;28;20174;-72
2023/06/20 05:22:23;;;;;;;9.68;8.30;;;;;;;20.50;90.66;96382.88;10567912;27;20196;-72
2023/06/20 05:27:24;;;;;;;10.98;8.00;;;;;;;20.72;89.54;96385.03;10583805;28;20189;-72
2023/06/20 05:32:24;;;;;;;9.55;8.65;;;;;;;20.78;91.06;96392.09;10583960;28;20204;-73
2023/06/20 05:37:24;;;;;;;10.25;9.15;;;;;;;20.92;90.74;96396.19;10583499;28;20305;-73
2023/06/20 05:42:25;;;;;;;8.80;7.90;;;;;;;20.81;91.38;96391.66;10583378;28;20186;-72
2023/06/20 05:47:25;;;;;;;8.70;7.55;;;;;;;20.80;91.95;96392.72;10582705;28;20201;-73
2023/06/20 05:52:26;;;;;;;9.82;8.30;;;;;;;20.96;89.57;96392.00;10583267;28;20194;-73
2023/06/20 05:57:26;;;;;;;12.38;7.93;;;;;;;21.07;88.51;96393.09;10583179;28;20196;-73
2023/06/20 06:02:26;;;;;;;10.77;8.95;;;;;;;20.94;90.92;96393.31;10582796;28;20724;-73
2023/06/20 06:07:27;;;;;;;10.77;8.63;;;;;;;21.27;88.14;96387.41;10582748;28;20657;-72
2023/06/20 06:12:27;;;;;;;9.30;8.40;;;;;;;21.53;86.98;96390.63;10582737;28;20738;-73
2023/06/20 06:17:28;;;;;;;11.38;8.38;;;;;;;21.31;89.25;96396.53;10582428;28;20268;-73
2023/06/20 06:22:28;;;;;;;10.68;9.25;;;;;;;21.25;90.87;96405.47;10582155;28;20190;-72
2023/06/20 06:27:28;;;;;;;16.27;9.60;;;;;;;21.32;90.16;96400.03;10582124;28;20277;-72
2023/06/20 06:32:30;;;;;;;10.43;8.70;;;;;;;21.37;90.38;96414.25;10581658;28;20198;-72
2023/06/20 06:37:31;;;;;;;13.35;9.00;;;;;;;21.71;86.22;96389.69;10546719;28;20585;-73
2023/06/20 06:42:32;;;;;;;10.57;9.10;;;;;;;21.76;88.93;96410.31;10562832;28;20213;-73
2023/06/20 06:47:35;;;;;;;11.18;9.40;;;;;;;21.72;89.81;96416.13;10546676;28;20600;-72
2023/06/20 06:52:36;;;;;;;12.60;9.05;;;;;;;21.68;89.38;96422.94;10580913;28;20197;-73
2023/06/20 06:57:36;;;;;;;12.93;8.82;;;;;;;22.00;84.82;96400.41;10581049;28;20194;-73
2023/06/20 07:02:36;;;;;;;9.45;8.48;;;;;;;22.33;81.86;96398.91;10580383;28;20597;-73
2023/06/20 07:07:37;;;;;;;10.45;9.05;;;;;;;22.48;80.22;96393.03;10580125;28;20580;-73
2023/06/20 07:12:37;;;;;;;11.70;8.50;;;;;;;22.81;79.29;96394.94;10580391;28;20597;-72
2023/06/20 07:17:38;;;;;;;8.60;7.80;;;;;;;23.17;75.80;96378.66;10579815;28;20657;-73
2023/06/20 07:22:39;;;;;;;10.52;8.00;;;;;;;23.38;72.67;96351.16;10580063;28;20190;-72
2023/06/20 07:27:39;;;;;;;9.43;8.10;;;;;;;23.74;72.15;96358.84;10579571;28;20197;-73
2023/06/20 07:32:39;;;;;;;10.23;7.80;;;;;;;24.39;69.84;96344.59;10579427;28;20623;-73
2023/06/20 07:37:40;;;;;;;8.40;7.60;;;;;;;25.05;66.25;96314.03;10579350;28;20597;-73
2023/06/20 07:42:40;;;;;;;27.30;10.02;;;;;;;25.36;64.56;96308.03;10578587;28;20535;-73
2023/06/20 07:47:41;;;;;;;9.10;7.80;;;;;;;26.17;59.07;96248.47;10579200;28;20192;-72
2023/06/20 07:52:41;;;;;;;8.02;7.22;;;;;;;26.11;58.02;96249.53;10578612;28;20928;-73
2023/06/20 07:57:42;;;;;;;10.65;7.88;;;;;;;25.99;58.76;96267.78;10578779;28;20196;-73
2023/06/20 08:02:42;;;;;;;8.63;7.22;;;;;;;26.11;58.02;96268.31;10578425;28;20226;-72
2023/06/20 08:07:42;;;;;;;8.07;7.17;;;;;;;26.73;57.71;96270.22;10578427;28;20250;-73
2023/06/20 08:12:43;;;;;;;7.63;6.85;;;;;;;24.66;59.46;96263.41;10578201;28;20428;-73
2023/06/20 08:17:43;;;;;;;8.82;7.88;;;;;;;25.31;59.57;96283.88;10578113;28;20641;-73
2023/06/20 08:22:43;;;;;;;7.90;7.20;;;;;;;24.83;61.96;96316.03;10578042;28;20560;-73
2023/06/20 08:27:44;;;;;;;8.07;7.23;;;;;;;24.57;64.63;96351.44;10577910;28;20797;-73
2023/06/20 08:32:45;;;;;;;8.77;7.80;;;;;;;24.96;66.00;96371.84;10577741;28;20862;-73
2023/06/20 08:37:45;;;;;;;8.32;7.38;;;;;;;25.36;66.42;96383.13;10577936;28;20221;-73
2023/06/20 08:42:45;;;;;;;8.07;6.73;;;;;;;25.74;63.14;96343.59;10577750;28;20186;-73
2023/06/20 08:47:46;;;;;;;9.90;7.20;;;;;;;25.62;63.01;96322.34;10576829;28;20450;-73
2023/06/20 08:52:47;;;;;;;8.30;7.38;;;;;;;26.01;64.90;96380.25;10579314;28;20265;-73
2023/06/20 08:57:48;;;;;;;9.73;8.57;;;;;;;25.74;64.11;96378.50;10585628;28;20193;-73
2023/06/20 09:02:52;;;;;;;8.52;7.72;;;;;;;26.26;63.00;96382.97;10585523;28;20243;-73
2023/06/20 09:07:52;;;;;;;13.52;8.55;;;;;;;26.14;64.63;96415.47;10585071;28;20595;-73
2023/06/20 09:12:56;;;;;;;11.55;8.75;;;;;;;26.50;64.17;96414.72;10550122;28;20288;-73
2023/06/20 09:18:01;;;;;;;9.15;8.23;;;;;;;26.21;64.72;96407.13;10584818;28;20194;-73
2023/06/20 09:23:01;;;;;;;9.85;8.23;;;;;;;26.56;64.66;96413.66;10584763;28;20190;-73
2023/06/20 09:28:02;;;;;;;12.73;8.50;;;;;;;26.76;61.51;96379.88;10584581;28;20222;-74
2023/06/20 09:33:06;;;;;;;9.15;8.35;;;;;;;26.52;62.20;96402.66;10583950;28;20225;-74
2023/06/20 09:38:06;;;;;;;11.68;8.25;;;;;;;26.38;63.10;96403.44;10584519;28;20213;-73
2023/06/20 09:43:06;;;;;;;9.30;8.13;;;;;;;26.19;62.53;96406.59;10583478;28;20281;-73
2023/06/20 09:48:08;;;;;;;12.10;8.80;;;;;;;26.36;64.87;96443.97;10583526;28;20485;-74
2023/06/20 09:53:22;;;;;;;11.93;8.00;;;;;;;25.96;66.98;96446.22;10583301;28;20796;-73
2023/06/20 09:58:24;;;;;;;11.10;8.80;;;;;;;25.68;68.84;96460.03;10583359;28;20186;-74
2023/06/20 10:03:25;;;;;;;10.43;7.90;;;;;;;25.40;70.42;96462.00;10582359;28;20275;-73
2023/06/20 10:08:26;;;;;;;11.52;9.15;;;;;;;25.00;72.17;96457.91;10564154;28;20712;-73
2023/06/20 10:13:27;;;;;;;12.82;8.73;;;;;;;25.96;68.09;96438.16;10564553;28;20235;-74
2023/06/20 10:18:30;;;;;;;11.77;8.77;;;;;;;25.52;67.68;96424.25;10582533;28;20230;-74
2023/06/20 10:23:32;;;;;;;8.43;7.55;;;;;;;25.88;67.96;96435.16;10554578;28;20206;-74
2023/06/20 10:28:32;;;;;;;9.40;6.97;;;;;;;26.78;62.65;96386.56;10540012;28;20260;-74
2023/06/20 10:33:39;;;;;;;9.23;7.63;;;;;;;26.84;62.62;96382.00;10521762;28;20201;-74
2023/06/20 10:38:51;;;;;;;7.97;7.18;;;;;;;27.25;61.72;96389.25;10539547;28;20202;-73
2023/06/20 10:43:56;;;;;;;11.95;7.15;;;;;;;28.04;57.23;96341.94;10539281;28;20583;-73
2023/06/20 10:48:56;;;;;;;9.52;7.57;;;;;;;27.63;59.07;96357.41;10521162;28;20244;-73
2023/06/20 10:54:10;;;;;;;9.50;7.30;;;;;;;27.57;59.24;96362.03;10538927;28;20256;-73
2023/06/20 10:59:19;;;;;;;8.65;7.75;;;;;;;26.38;63.77;96387.31;10538741;28;20433;-73
2023/06/20 11:04:20;;;;;;;8.40;7.60;;;;;;;26.35;65.26;96415.50;10538400;28;20226;-73
2023/06/20 11:09:23;;;;;;;9.02;7.53;;;;;;;26.13;65.95;96405.78;10520270;28;20219;-74
2023/06/20 11:14:23;;;;;;;10.15;7.03;;;;;;;26.77;65.50;96400.28;10537738;28;20191;-74
2023/06/20 11:19:27;;;;;;;8.88;7.55;;;;;;;26.48;64.84;96379.28;10519254;28;20672;-74
2023/06/20 11:24:30;;;;;;;8.57;7.65;;;;;;;26.54;63.51;96362.09;10538021;28;20211;-74
2023/06/20 11:29:36;;;;;;;8.40;7.35;;;;;;;26.20;65.70;96372.50;10537286;28;20214;-74
2023/06/20 11:34:53;;;;;;;9.63;8.63;;;;;;;26.11;66.04;96364.16;10537452;28;20218;-74
2023/06/20 11:39:53;;;;;;;11.60;8.07;;;;;;;25.86;67.79;96380.97;10537095;28;20755;-74
2023/06/20 11:45:06;;;;;;;9.50;8.50;;;;;;;26.10;68.11;96386.72;10537180;28;20190;-74
2023/06/20 11:50:20;;;;;;;9.30;7.65;;;;;;;26.71;65.77;96356.50;10536882;28;20309;-73
2023/06/20 11:55:59;;;;;;;10.73;9.63;;;;;;;27.10;65.94;96382.00;10536868;28;20217;-74
2023/06/20 12:01:13;;;;;;;11.73;8.57;;;;;;;27.48;64.23;96366.34;10536094;28;20187;-73
2023/06/20 12:06:34;;;;;;;10.77;8.52;;;;;;;26.94;67.10;96379.31;10536625;28;20250;-73
2023/06/20 12:11:36;;;;;;;12.98;8.90;;;;;;;27.00;67.70;96396.28;10535847;28;20225;-74
2023/06/20 12:16:36;;;;;;;12.35;9.75;;;;;;;28.08;64.22;96361.00;10536493;28;20651;-74
2023/06/20 12:21:38;;;;;;;12.90;9.55;;;;;;;28.00;63.29;96335.47;10518063;28;20193;-74
2023/06/20 12:26:38;;;;;;;12.98;9.50;;;;;;;30.23;57.23;96303.34;10537656;28;20201;-73
2023/06/20 12:31:39;;;;;;;9.87;7.90;;;;;;;31.44;55.08;96305.38;10544760;28;20770;-73
2023/06/20 12:36:39;;;;;;;9.63;8.63;;;;;;;32.80;50.35;96259.53;10544265;28;20940;-73
2023/06/20 12:41:40;;;;;;;9.10;8.07;;;;;;;33.82;49.64;96253.19;10526329;28;20194;-71
2023/06/20 12:46:41;;;;;;;9.50;8.50;;;;;;;33.26;48.57;96209.44;10543372;28;20475;-73
2023/06/20 12:51:41;;;;;;;10.32;9.30;;;;;;;33.03;48.74;96223.09;10544055;28;20471;-73
2023/06/20 12:56:41;;;;;;;12.13;8.83;;;;;;;33.65;48.86;96237.66;10543537;28;20208;-73
2023/06/20 13:01:42;;;;;;;11.32;8.70;;;;;;;33.58;48.24;96218.31;10543310;28;20436;-73
2023/06/20 13:06:43;;;;;;;10.00;7.90;;;;;;;34.27;45.16;96162.38;10543312;28;20222;-73
2023/06/20 13:11:43;;;;;;;12.80;8.70;;;;;;;33.66;45.75;96154.22;10524798;28;20226;-73
2023/06/20 13:16:44;;;;;;;11.47;8.70;;;;;;;34.11;47.38;96194.69;10543072;28;20193;-73
2023/06/20 13:21:44;;;;;;;12.93;8.40;;;;;;;34.23;47.02;96189.38;10542451;28;20438;-73
2023/06/20 13:26:44;;;;;;;10.97;9.00;;;;;;;35.04;42.09;96102.53;10542376;28;20455;-74
2023/06/20 13:31:45;;;;;;;12.03;8.00;;;;;;;34.70;44.16;96150.53;10542125;28;20221;-74
2023/06/20 13:36:45;;;;;;;10.23;8.57;;;;;;;35.71;41.63;96133.47;10541985;28;20301;-74
2023/06/20 13:41:45;;;;;;;10.60;8.03;;;;;;;35.43;42.43;96137.84;10540811;28;20186;-71
2023/06/20 13:46:46;;;;;;;8.47;7.40;;;;;;;36.32;41.13;96134.03;10541346;28;20926;-73
2023/06/20 13:51:46;;;;;;;8.13;7.33;;;;;;;35.65;40.61;96084.94;10541360;28;20551;-73
2023/06/20 13:56:46;;;;;;;7.77;7.03;;;;;;;33.88;40.82;96039.16;10541378;28;20462;-73
2023/06/20 14:01:47;;;;;;;7.30;5.80;;;;;;;33.68;38.35;95976.22;10541214;28;20443;-74
2023/06/20 14:06:47;;;;;;;6.13;5.53;;;;;;;31.45;38.68;95898.97;10546659;28;20290;-73
2023/06/20 14:11:48;;;;;;;7.10;6.40;;;;;;;30.35;44.55;96005.63;10570639;28;20575;-73
2023/06/20 14:16:49;;;;;;;8.00;6.10;;;;;;;30.56;43.49;95982.50;10540432;28;20453;-73
2023/06/20 14:21:52;;;;;;;11.05;8.18;;;;;;;30.47;45.62;96015.97;10540715;28;20483;-73
2023/06/20 14:26:54;;;;;;;9.13;8.13;;;;;;;30.86;48.38;96093.00;10562123;28;20198;-73
2023/06/20 14:31:55;;;;;;;8.73;7.68;;;;;;;30.23;52.16;96128.53;10582153;28;20218;-73
2023/06/20 14:36:56;;;;;;;8.97;8.07;;;;;;;30.12;50.86;96096.56;10573101;28;20708;-73
2023/06/20 14:41:56;;;;;;;9.68;8.00;;;;;;;30.60;52.60;96136.81;10563423;28;20957;-73
2023/06/20 14:46:57;;;;;;;15.70;8.55;;;;;;;32.49;48.47;96122.00;10520282;28;20202;-73
2023/06/20 14:51:57;;;;;;;8.68;7.95;;;;;;;34.15;43.43;96070.56;10520478;28;20225;-73
2023/06/20 14:56:57;;;;;;;7.85;6.90;;;;;;;31.90;39.53;95911.66;10538980;28;20191;-73
2023/06/20 15:01:58;;;;;;;7.90;7.10;;;;;;;32.92;39.69;95941.50;10538377;28;20293;-73
2023/06/20 15:06:59;;;;;;;9.95;7.80;;;;;;;31.10;41.11;95923.16;10538671;28;20440;-73
2023/06/20 15:11:59;;;;;;;9.90;7.43;;;;;;;31.36;40.71;95929.84;10538064;28;20214;-73
2023/06/20 15:17:00;;;;;;;9.60;7.00;;;;;;;31.41;40.93;95927.00;10538189;28;20444;-73
2023/06/20 15:22:00;;;;;;;9.88;8.05;;;;;;;31.23;41.36;95943.13;10537924;28;20442;-72
2023/06/20 15:27:00;;;;;;;9.30;8.33;;;;;;;31.14;42.92;95969.34;10537853;28;20203;-73
2023/06/20 15:32:01;;;;;;;8.90;8.00;;;;;;;30.44;42.47;95921.97;10537561;28;20483;-72
2023/06/20 15:37:01;;;;;;;11.25;8.13;;;;;;;30.07;44.15;95951.59;10537504;28;20452;-72
2023/06/20 15:42:02;;;;;;;9.20;8.30;;;;;;;28.97;44.86;95925.97;10537111;28;20190;-73
2023/06/20 15:47:03;;;;;;;9.93;9.02;;;;;;;28.53;46.34;95954.91;10536869;28;20489;-73
2023/06/20 15:52:04;;;;;;;10.20;9.23;;;;;;;28.67;45.40;95946.91;10536767;28;20218;-73
2023/06/20 15:57:09;;;;;;;9.95;9.02;;;;;;;28.92;46.08;95961.09;10536783;28;20726;-73
2023/06/20 16:02:12;;;;;;;10.30;9.30;;;;;;;28.17;47.09;95970.72;10536276;28;20256;-73
2023/06/20 16:07:13;;;;;;;10.00;7.85;;;;;;;28.27;47.65;95994.81;10536203;28;20336;-72
2023/06/20 16:12:14;;;;;;;11.93;8.80;;;;;;;28.04;48.25;95996.41;10535280;28;20301;-73
2023/06/20 16:17:15;;;;;;;12.02;8.27;;;;;;;27.68;49.60;96008.34;10536003;28;20198;-73
2023/06/20 16:22:15;;;;;;;12.63;9.77;;;;;;;27.72;51.23;96038.97;10536226;28;20186;-73
2023/06/20 16:27:16;;;;;;;12.25;9.52;;;;;;;27.55;52.11;96047.47;10536295;28;20187;-73
2023/06/20 16:32:16;;;;;;;15.77;9.02;;;;;;;27.62;51.19;96032.88;10535894;28;20309;-73
2023/06/20 16:37:17;;;;;;;11.90;9.07;;;;;;;28.64;50.45;96050.72;10536291;28;20678;-73
2023/06/20 16:42:19;;;;;;;10.63;9.53;;;;;;;28.72;49.52;96041.19;10535582;28;20918;-73
2023/06/20 16:47:19;;;;;;;13.57;10.32;;;;;;;27.89;51.67;96053.91;10535735;28;20441;-73
2023/06/20 16:52:20;;;;;;;12.57;9.30;;;;;;;28.31;51.58;96057.00;10535384;28;20214;-72
2023/06/20 16:57:21;;;;;;;10.87;9.87;;;;;;;28.22;51.70;96054.13;10535526;28;20194;-72
2023/06/20 17:02:21;;;;;;;13.23;9.95;;;;;;;28.25;51.20;96045.47;10535071;28;20472;-72
2023/06/20 17:07:21;;;;;;;11.00;9.83;;;;;;;27.79;52.68;96060.19;10535112;28;20202;-73
2023/06/20 17:12:22;;;;;;;10.50;9.57;;;;;;;27.97;51.94;96060.59;10535402;28;20476;-73
2023/06/20 17:17:23;;;;;;;10.90;9.80;;;;;;;27.95;52.28;96063.53;10542430;28;20501;-73
2023/06/20 17:22:23;;;;;;;10.18;9.27;;;;;;;27.83;51.98;96050.47;10542930;28;20967;-73
2023/06/20 17:27:23;;;;;;;14.00;9.93;;;;;;;27.19;56.02;96089.94;10542466;28;20251;-73
2023/06/20 17:32:24;;;;;;;11.70;10.37;;;;;;;27.27;55.88;96097.41;10541925;28;20221;-72
2023/06/20 17:37:24;;;;;;;13.20;10.95;;;;;;;27.11;55.11;96077.09;10542139;28;20464;-73
2023/06/20 17:42:25;;;;;;;17.88;10.32;;;;;;;27.25;54.92;96078.06;10541762;28;20190;-73
2023/06/20 17:47:27;;;;;;;12.13;10.73;;;;;;;27.01;56.23;96092.19;10541627;28;20278;-73
2023/06/20 17:52:28;;;;;;;11.88;9.93;;;;;;;27.43;55.65;96097.31;10541396;28;20480;-73
2023/06/20 17:57:28;;;;;;;13.00;10.55;;;;;;;26.97;55.92;96083.06;10541068;28;20202;-73
2023/06/20 18:02:28;;;;;;;11.20;10.10;;;;;;;27.29;55.67;96076.44;10540920;28;20718;-73
2023/06/20 18:07:29;;;;;;;12.68;10.18;;;;;;;26.68;57.39;96081.03;10540728;28;20967;-73
2023/06/20 18:12:29;;;;;;;12.45;9.90;;;;;;;26.63;57.34;96078.38;10540483;28;20560;-73
2023/06/20 18:17:30;;;;;;;12.07;9.88;;;;;;;26.14;59.10;96092.44;10540514;28;20195;-73
2023/06/20 18:22:30;;;;;;;13.30;10.90;;;;;;;26.35;60.75;96114.69;10539957;28;20194;-73
2023/06/20 18:27:30;;;;;;;11.17;10.07;;;;;;;26.14;62.06;96130.03;10539780;28;20479;-73
2023/06/20 18:32:31;;;;;;;12.00;9.80;;;;;;;25.98;63.14;96132.75;10539478;28;20524;-72
2023/06/20 18:37:31;;;;;;;12.40;9.37;;;;;;;25.78;64.20;96130.03;10539687;28;20479;-72
2023/06/20 18:42:31;;;;;;;13.85;10.55;;;;;;;24.63;67.64;96150.63;10539173;28;20444;-72
2023/06/20 18:47:32;;;;;;;11.65;10.40;;;;;;;24.31;69.72;96170.22;10538397;28;20256;-72
2023/06/20 18:52:32;;;;;;;16.00;10.52;;;;;;;24.00;71.96;96173.47;10539118;28;20218;-72
2023/06/20 18:57:32;;;;;;;13.57;10.50;;;;;;;23.90;73.46;96167.22;10537415;28;20209;-73
2023/06/20 19:02:33;;;;;;;12.07;10.82;;;;;;;23.48;76.08;96184.75;10538462;28;20226;-73
2023/06/20 19:07:33;;;;;;;12.52;10.95;;;;;;;22.74;79.72;96186.78;10538394;28;20191;-73
2023/06/20 19:12:35;;;;;;;15.18;11.57;;;;;;;21.98;84.39;96191.78;10538109;28;20317;-73
2023/06/20 19:17:35;;;;;;;19.67;13.02;;;;;;;21.62;89.11;96193.84;10537995;28;20697;-73
2023/06/20 19:22:36;;;;;;;14.00;12.02;;;;;;;21.20;92.71;96194.91;10537659;28;20286;-72
2023/06/20 19:27:36;;;;;;;15.80;12.65;;;;;;;21.06;96.13;96198.88;10537499;28;20236;-73
2023/06/20 19:32:37;;;;;;;13.77;12.25;;;;;;;21.02;97.17;96201.19;10537515;28;20752;-73
2023/06/20 19:37:37;;;;;;;14.82;13.30;;;;;;;20.38;100.00;96209.13;10536415;28;20218;-73
2023/06/20 19:42:38;;;;;;;15.95;12.75;;;;;;;20.27;100.00;96219.50;10537036;28;20195;-73
2023/06/20 19:47:38;;;;;;;13.82;12.43;;;;;;;20.06;100.00;96217.41;10536868;28;20294;-73
2023/06/20 19:52:39;;;;;;;13.90;12.50;;;;;;;20.10;100.00;96222.03;10536674;28;20211;-73
2023/06/20 19:57:41;;;;;;;14.43;13.02;;;;;;;20.12;100.00;96221.81;10536821;28;20191;-73
2023/06/20 20:02:41;;;;;;;19.65;13.20;;;;;;;19.53;100.00;96232.25;10536537;28;20226;-73
2023/06/20 20:07:42;;;;;;;18.42;14.18;;;;;;;19.47;100.00;96228.66;10537060;28;20199;-73
2023/06/20 20:12:42;;;;;;;16.42;13.40;;;;;;;19.70;100.00;96235.91;10517909;28;20588;-73
2023/06/20 20:17:43;;;;;;;14.23;12.60;;;;;;;19.76;100.00;96231.53;10536596;28;20562;-73
2023/06/20 20:22:43;;;;;;;16.45;13.38;;;;;;;19.68;100.00;96227.34;10536339;28;20278;-73
2023/06/20 20:27:43;;;;;;;15.80;13.77;;;;;;;19.58;100.00;96227.88;10535890;28;20190;-72
2023/06/20 20:32:45;;;;;;;18.58;14.90;;;;;;;19.67;100.00;96235.56;10536294;28;20222;-72
2023/06/20 20:37:45;;;;;;;18.98;14.80;;;;;;;19.78;100.00;96232.97;10535542;28;20222;-72
2023/06/20 20:42:48;;;;;;;16.95;13.55;;;;;;;20.03;100.00;96236.47;10536101;28;20191;-73
2023/06/20 20:47:49;;;;;;;16.05;12.85;;;;;;;20.12;100.00;96219.97;10536192;28;20191;-73
2023/06/20 20:52:49;;;;;;;25.77;12.65;;;;;;;20.27;100.00;96222.16;10544118;28;20244;-72
2023/06/20 20:57:50;;;;;;;15.27;13.02;;;;;;;20.37;100.00;96226.09;10543840;28;20255;-73
2023/06/20 21:35:17;;;;;;;16.13;12.63;;;;;;;20.44;98.96;96203.69;10543290;28;20215;-73
2023/06/20 21:40:18;;;;;;;14.13;11.82;;;;;;;20.49;98.40;96200.34;10541612;28;20293;-72
2023/06/20 21:45:18;;;;;;;13.93;12.45;;;;;;;20.40;98.42;96199.03;10541954;28;20277;-72
2023/06/20 21:50:22;;;;;;;14.90;12.63;;;;;;;20.39;98.61;96192.13;10541409;28;20214;-73
2023/06/20 21:55:23;;;;;;;16.42;13.00;;;;;;;20.35;98.67;96190.94;10541553;28;20301;-73
2023/06/20 22:00:24;;;;;;;13.82;11.93;;;;;;;20.40;98.21;96186.56;10540661;28;20286;-73
2023/06/20 22:05:24;;;;;;;15.63;12.25;;;;;;;20.37;98.61;96188.84;10540965;28;20195;-73
2023/06/20 22:10:24;;;;;;;15.95;12.60;;;;;;;20.35;98.62;96185.63;10541137;28;20318;-73
2023/06/20 22:15:25;;;;;;;13.70;12.30;;;;;;;20.43;97.84;96182.63;10540702;28;20239;-73
2023/06/20 22:20:26;;;;;;;13.10;11.75;;;;;;;20.49;97.27;96189.69;10540765;28;20187;-73
2023/06/20 22:25:26;;;;;;;14.52;11.52;;;;;;;20.40;97.60;96191.06;10540233;28;20186;-73
2023/06/20 22:30:27;;;;;;;15.50;11.52;;;;;;;20.37;97.94;96192.34;10540199;28;20214;-73
2023/06/20 22:35:27;;;;;;;13.68;11.52;;;;;;;20.27;98.94;96194.78;10539904;28;20217;-73
2023/06/20 22:40:27;;;;;;;13.98;11.35;;;;;;;20.43;97.47;96191.41;10539486;28;20206;-74
2023/06/20 22:45:28;;;;;;;14.13;12.02;;;;;;;20.42;97.61;96189.78;10539067;28;20198;-72
2023/06/20 22:50:28;;;;;;;13.77;11.45;;;;;;;20.67;95.39;96186.09;10539177;28;20237;-72
2023/06/20 22:55:34;;;;;;;16.35;12.30;;;;;;;20.56;95.62;96197.53;10539019;28;20283;-73
2023/06/20 23:00:34;;;;;;;13.30;11.45;;;;;;;20.36;97.67;96211.19;10538932;28;20627;-73
2023/06/20 23:05:35;;;;;;;13.82;12.20;;;;;;;20.24;99.27;96203.22;10538782;28;20190;-73
2023/06/20 23:10:35;;;;;;;13.45;12.05;;;;;;;20.25;100.00;96205.63;10537311;28;20229;-73
2023/06/20 23:15:35;;;;;;;14.27;12.07;;;;;;;20.21;100.00;96211.66;10538397;28;20195;-72
2023/06/20 23:20:37;;;;;;;16.20;11.75;;;;;;;20.31;99.78;96210.03;10538047;28;20198;-73
2023/06/20 23:25:40;;;;;;;11.68;10.52;;;;;;;20.43;99.11;96206.59;10538042;28;20197;-72
2023/06/20 23:30:40;;;;;;;13.73;12.05;;;;;;;20.53;97.23;96177.53;10537484;28;20211;-73
2023/06/20 23:35:42;;;;;;;17.38;12.13;;;;;;;20.62;96.88;96172.66;10538129;28;20273;-72